Time;durP1;ratioP1;P1;durP2;ratioP2;P2;SDS_P1;SDS_P2;PMS_P1;PMS_P2;Temp;Humidity;BMP_temperature;BMP_pressure;BME280_temperature;BME280_humidity;BME280_pressure;Samples;Min_cycle;Max_cycle;Signal;HPM_P1;HPM_P2
2022/04/01 00:02:19;;;;;;;5.05;1.27;;;0.30;99.90;;;;;;4898788;29;20470;-72
2022/04/01 00:04:45;;;;;;;3.72;1.10;;;0.40;99.90;;;;;;4898982;29;20084;-71
2022/04/01 00:07:11;;;;;;;5.15;1.42;;;0.40;99.90;;;;;;4882063;29;20056;-70
2022/04/01 00:09:37;;;;;;;3.20;1.30;;;0.40;99.90;;;;;;4899039;29;20084;-74
2022/04/01 00:12:05;;;;;;;6.28;1.02;;;0.40;99.90;;;;;;4898962;29;20056;-72
2022/04/01 00:14:31;;;;;;;4.45;1.30;;;0.40;99.90;;;;;;4898595;29;20056;-71
2022/04/01 00:16:57;;;;;;;2.78;1.10;;;0.40;99.90;;;;;;4881897;29;20064;-72
2022/04/01 00:19:23;;;;;;;5.18;1.30;;;0.40;99.90;;;;;;4881908;29;20079;-72
2022/04/01 00:21:49;;;;;;;3.28;0.93;;;1.20;99.90;;;;;;4898750;29;20417;-72
2022/04/01 00:24:15;;;;;;;2.95;0.85;;;0.40;99.90;;;;;;4881675;29;20054;-74
2022/04/01 00:26:40;;;;;;;2.42;0.90;;;0.40;99.90;;;;;;4898477;29;20054;-72
2022/04/01 00:29:15;;;;;;;5.10;1.10;;;0.40;99.90;;;;;;4898568;29;20076;-71
2022/04/01 00:31:49;;;;;;;7.00;1.45;;;0.40;99.90;;;;;;4898488;29;20052;-73
2022/04/01 00:34:16;;;;;;;3.35;0.90;;;0.40;99.90;;;;;;4898594;29;20044;-69
2022/04/01 00:36:46;;;;;;;3.03;0.90;;;0.50;99.90;;;;;;4898276;29;20389;-70
2022/04/01 00:39:13;;;;;;;4.00;1.30;;;0.50;99.90;;;;;;4880933;29;20515;-72
2022/04/01 00:41:40;;;;;;;3.15;1.30;;;0.50;99.90;;;;;;4898459;29;20053;-72
2022/04/01 00:44:19;;;;;;;3.38;0.90;;;0.60;99.90;;;;;;4897962;29;20040;-73
2022/04/01 00:47:00;;;;;;;2.85;0.95;;;0.60;99.90;;;;;;4897959;29;20519;-70
2022/04/01 00:49:28;;;;;;;3.83;1.33;;;0.60;99.90;;;;;;4897951;29;20104;-73
2022/04/01 00:51:56;;;;;;;3.22;0.93;;;0.60;99.90;;;;;;4881638;29;20057;-68
2022/04/01 00:54:22;;;;;;;4.50;1.42;;;1.60;99.90;;;;;;4898021;29;20068;-71
2022/04/01 00:56:48;;;;;;;3.75;0.90;;;0.80;99.90;;;;;;4897443;29;20052;-72
2022/04/01 00:59:14;;;;;;;2.53;1.23;;;0.70;99.90;;;;;;4881072;29;20094;-72
2022/04/01 01:01:43;;;;;;;3.58;0.95;;;0.70;99.90;;;;;;4898143;29;20041;-69
2022/04/01 01:04:10;;;;;;;4.32;1.45;;;0.70;99.90;;;;;;4898189;29;20433;-72
2022/04/01 01:06:38;;;;;;;2.97;1.05;;;0.80;99.90;;;;;;4880658;29;20095;-71
2022/04/01 01:09:04;;;;;;;4.45;1.60;;;0.80;99.90;;;;;;4881180;29;20049;-71
2022/04/01 01:11:31;;;;;;;2.55;0.80;;;0.80;99.90;;;;;;4897486;29;20097;-73
2022/04/01 01:13:57;;;;;;;4.88;1.48;;;0.80;99.90;;;;;;4897489;29;20052;-72
2022/04/01 01:16:23;;;;;;;3.45;1.30;;;0.90;99.90;;;;;;4880576;29;20460;-70
2022/04/01 01:19:05;;;;;;;2.70;0.95;;;0.80;99.90;;;;;;4881208;29;20041;-71
2022/04/01 01:21:31;;;;;;;2.95;1.10;;;0.90;99.90;;;;;;4897604;29;20575;-70
2022/04/01 01:24:06;;;;;;;4.20;1.17;;;0.90;99.90;;;;;;4898011;29;20401;-75
2022/04/01 01:26:32;;;;;;;3.58;1.20;;;0.90;99.90;;;;;;4880546;29;20132;-71
2022/04/01 01:28:59;;;;;;;3.42;1.20;;;0.80;99.90;;;;;;4880479;29;20052;-75
2022/04/01 01:31:26;;;;;;;4.72;0.98;;;0.80;99.90;;;;;;4897762;29;20520;-74
2022/04/01 01:33:54;;;;;;;3.20;1.25;;;0.90;99.90;;;;;;4897465;29;20104;-76
2022/04/01 01:36:21;;;;;;;2.63;1.10;;;0.90;99.90;;;;;;4897777;29;20052;-73
2022/04/01 01:38:46;;;;;;;4.55;1.13;;;0.90;99.90;;;;;;4897655;29;20074;-72
2022/04/01 01:41:13;;;;;;;3.40;1.10;;;1.00;99.90;;;;;;4897483;29;20602;-70
2022/04/01 01:43:41;;;;;;;2.20;0.88;;;1.00;99.90;;;;;;4897225;29;20055;-71
2022/04/01 01:46:08;;;;;;;2.30;0.98;;;0.90;99.90;;;;;;4897603;29;20044;-72
2022/04/01 01:48:34;;;;;;;3.75;0.98;;;0.90;99.90;;;;;;4883290;29;20136;-71
2022/04/01 01:56:29;;;;;;;2.58;0.93;;;0.90;99.90;;;;;;4884197;29;20052;-72
2022/04/01 01:58:55;;;;;;;6.28;1.48;;;0.80;99.90;;;;;;4900962;29;20044;-70
2022/04/01 02:01:21;;;;;;;4.22;1.25;;;0.80;99.90;;;;;;4884363;29;20057;-75
2022/04/01 02:03:47;;;;;;;3.83;1.42;;;0.80;99.90;;;;;;4901106;29;20063;-71
2022/04/01 02:06:13;;;;;;;7.22;1.33;;;0.70;99.90;;;;;;4901228;29;20044;-72
2022/04/01 02:08:40;;;;;;;2.90;0.98;;;0.70;99.90;;;;;;4884519;29;20063;-71
2022/04/01 02:11:07;;;;;;;2.47;1.02;;;0.70;99.90;;;;;;4900971;29;20524;-73
2022/04/01 02:13:33;;;;;;;3.20;0.90;;;0.70;99.90;;;;;;4900926;29;20088;-71
2022/04/01 02:15:59;;;;;;;3.95;1.20;;;0.70;99.90;;;;;;4883325;29;20095;-71
2022/04/01 02:18:25;;;;;;;3.67;1.00;;;0.70;99.90;;;;;;4884211;29;20140;-72
2022/04/01 02:20:51;;;;;;;2.40;1.00;;;0.70;99.90;;;;;;4900847;29;20127;-72
2022/04/01 02:23:16;;;;;;;2.85;0.88;;;0.80;99.90;;;;;;4900849;29;20052;-71
2022/04/01 02:25:43;;;;;;;1.70;0.95;;;0.80;99.90;;;;;;4900922;29;20237;-70
2022/04/01 02:28:12;;;;;;;3.65;1.05;;;0.80;99.90;;;;;;4883550;29;20060;-71
2022/04/01 02:30:39;;;;;;;2.83;1.17;;;0.80;99.90;;;;;;4900475;29;20052;-70
2022/04/01 02:33:08;;;;;;;5.57;1.17;;;0.80;99.90;;;;;;4900382;29;20170;-71
2022/04/01 02:35:34;;;;;;;5.13;1.20;;;0.70;99.90;;;;;;4900155;29;20060;-70
2022/04/01 02:38:01;;;;;;;0.95;0.50;;;0.70;99.90;;;;;;4883543;29;20097;-70
2022/04/01 02:40:27;;;;;;;2.20;0.90;;;0.70;99.90;;;;;;4900651;29;20048;-70
2022/04/01 02:42:54;;;;;;;2.45;0.95;;;0.80;99.90;;;;;;4900677;29;20059;-71
2022/04/01 02:45:24;;;;;;;1.83;0.90;;;0.80;99.90;;;;;;4900326;29;20048;-69
2022/04/01 02:47:50;;;;;;;3.38;1.17;;;0.80;99.90;;;;;;4899536;29;20063;-70
2022/04/01 02:50:16;;;;;;;2.75;0.98;;;0.80;99.90;;;;;;4900271;29;20080;-72
2022/04/01 02:52:42;;;;;;;2.67;1.00;;;0.80;99.90;;;;;;4900212;29;20105;-71
2022/04/01 02:55:08;;;;;;;2.72;0.95;;;0.80;99.90;;;;;;4900202;29;20044;-71
2022/04/01 02:57:34;;;;;;;3.92;1.08;;;0.80;99.90;;;;;;4883249;29;20096;-70
2022/04/01 03:00:00;;;;;;;2.25;0.80;;;0.80;99.90;;;;;;4900238;29;20083;-71
2022/04/01 03:02:26;;;;;;;1.63;0.90;;;0.80;99.90;;;;;;4900000;29;20107;-70
2022/04/01 03:04:52;;;;;;;2.17;0.77;;;0.80;99.90;;;;;;4899505;29;20100;-70
2022/04/01 03:07:18;;;;;;;3.05;0.77;;;0.80;99.90;;;;;;4899863;29;20485;-70
2022/04/01 03:09:44;;;;;;;4.03;1.23;;;2.10;99.90;;;;;;4900097;29;20044;-70
2022/04/01 03:12:11;;;;;;;2.25;0.88;;;0.80;99.90;;;;;;4883293;29;20131;-71
2022/04/01 03:14:37;;;;;;;2.80;0.90;;;0.90;99.90;;;;;;4899958;29;20057;-69
2022/04/01 03:17:03;;;;;;;3.33;0.90;;;0.90;99.90;;;;;;4899741;29;20053;-70
2022/04/01 03:19:29;;;;;;;2.80;0.98;;;0.90;99.90;;;;;;4899399;29;20060;-72
2022/04/01 03:21:55;;;;;;;3.90;1.13;;;0.90;99.90;;;;;;4882567;29;20501;-70
2022/04/01 03:24:21;;;;;;;3.90;1.10;;;0.90;99.90;;;;;;4882697;29;20135;-70
2022/04/01 03:26:47;;;;;;;3.85;1.00;;;0.90;99.90;;;;;;4882813;29;20135;-72
2022/04/01 03:29:12;;;;;;;2.70;0.75;;;1.00;99.90;;;;;;4883161;29;20048;-72
2022/04/01 03:31:38;;;;;;;2.95;1.08;;;1.00;99.90;;;;;;4899644;29;20055;-71
2022/04/01 03:34:05;;;;;;;2.45;0.93;;;1.40;99.90;;;;;;4882813;29;20052;-70
2022/04/01 03:36:31;;;;;;;6.63;0.82;;;1.10;99.90;;;;;;4898692;29;20048;-70
2022/04/01 03:38:57;;;;;;;2.35;0.90;;;1.10;99.90;;;;;;4899299;29;20049;-73
2022/04/01 03:41:23;;;;;;;3.78;1.25;;;1.10;99.90;;;;;;4899489;29;20060;-71
2022/04/01 03:43:51;;;;;;;5.18;1.30;;;1.10;99.90;;;;;;4866860;29;20060;-71
2022/04/01 03:46:20;;;;;;;6.15;1.10;;;1.20;99.90;;;;;;4882098;29;20056;-72
2022/04/01 03:48:55;;;;;;;4.85;1.67;;;1.20;99.90;;;;;;4882305;29;20060;-72
2022/04/01 03:51:25;;;;;;;1.77;0.88;;;1.20;99.90;;;;;;4898620;29;20072;-70
2022/04/01 03:53:55;;;;;;;2.97;0.98;;;1.30;99.90;;;;;;4899508;29;20056;-70
2022/04/01 03:56:28;;;;;;;2.83;0.70;;;1.30;99.90;;;;;;4882185;29;20581;-73
2022/04/01 03:58:55;;;;;;;;;;;1.30;99.90;;;;;;4882692;29;20509;-72
2022/04/01 04:01:20;;;;;;;6.18;1.00;;;1.20;99.90;;;;;;4882289;29;19970;-71
2022/04/01 04:03:50;;;;;;;4.57;0.90;;;1.30;99.90;;;;;;4898929;29;20072;-72
2022/04/01 04:06:17;;;;;;;2.03;0.70;;;1.30;99.90;;;;;;4899123;29;20119;-73
2022/04/01 04:08:45;;;;;;;3.42;1.20;;;1.30;99.90;;;;;;4881196;29;20052;-72
2022/04/01 04:11:11;;;;;;;1.55;0.93;;;1.30;99.90;;;;;;4898447;29;20040;-70
2022/04/01 04:13:38;;;;;;;1.83;0.50;;;1.30;99.90;;;;;;4898956;29;20052;-71
2022/04/01 04:16:31;;;;;;;3.08;1.05;;;1.30;99.90;;;;;;4898553;29;20064;-70
2022/04/01 04:19:04;;;;;;;1.40;0.70;;;1.30;99.90;;;;;;4881755;29;20052;-72
2022/04/01 04:21:36;;;;;;;3.85;2.30;;;1.30;99.90;;;;;;4881999;29;20060;-70
2022/04/01 04:24:02;;;;;;;3.58;1.33;;;1.30;99.90;;;;;;4898332;29;20049;-80
2022/04/01 04:26:32;;;;;;;4.57;0.77;;;1.30;99.90;;;;;;4898675;29;20497;-71
2022/04/01 04:29:08;;;;;;;1.77;0.73;;;1.30;99.90;;;;;;4898660;29;20053;-70
2022/04/01 04:31:35;;;;;;;2.60;0.95;;;1.30;99.90;;;;;;4898624;29;20048;-70
2022/04/01 04:34:03;;;;;;;3.30;1.00;;;1.30;99.90;;;;;;4898298;29;20055;-71
2022/04/01 04:36:36;;;;;;;1.52;0.47;;;1.80;99.90;;;;;;4898429;29;20082;-79
2022/04/01 04:39:05;;;;;;;4.07;1.20;;;1.20;99.90;;;;;;4897977;29;20041;-71
2022/04/01 04:41:32;;;;;;;4.85;0.98;;;1.20;99.90;;;;;;4881418;29;20060;-72
2022/04/01 04:43:59;;;;;;;3.03;0.60;;;1.50;99.90;;;;;;4898115;29;20067;-71
2022/04/01 04:46:26;;;;;;;2.47;0.88;;;1.20;99.90;;;;;;4898114;29;20040;-72
2022/04/01 04:48:54;;;;;;;5.32;0.85;;;1.20;99.90;;;;;;4898217;29;20040;-71
2022/04/01 04:51:25;;;;;;;2.92;0.73;;;1.20;99.90;;;;;;4898232;29;20044;-70
2022/04/01 04:53:51;;;;;;;3.88;0.90;;;1.20;99.90;;;;;;4898018;29;20088;-79
2022/04/01 04:56:18;;;;;;;2.40;0.75;;;1.20;99.90;;;;;;4897818;29;20046;-70
2022/04/01 04:58:44;;;;;;;1.40;0.70;;;1.70;99.90;;;;;;4898072;29;20049;-80
2022/04/01 05:01:38;;;;;;;1.60;0.70;;;1.20;99.90;;;;;;4881115;29;20052;-72
2022/04/01 05:04:30;;;;;;;4.05;0.65;;;1.20;99.90;;;;;;4881467;29;20446;-72
2022/04/01 05:07:19;;;;;;;5.60;1.10;;;1.20;99.90;;;;;;4894220;29;20057;-72
2022/04/01 05:10:03;;;;;;;5.13;1.20;;;1.30;99.90;;;;;;4897998;29;20214;-71
2022/04/01 05:12:47;;;;;;;4.32;0.82;;;1.20;99.90;;;;;;4880820;29;20404;-72
2022/04/01 05:15:18;;;;;;;4.13;1.00;;;1.20;99.90;;;;;;4897762;29;20083;-71
2022/04/01 05:17:54;;;;;;;2.50;0.93;;;1.20;99.90;;;;;;4881368;29;20082;-71
2022/04/01 05:20:41;;;;;;;7.47;1.50;;;1.20;99.90;;;;;;4881010;29;20054;-72
2022/04/01 05:23:12;;;;;;;3.40;1.23;;;1.20;99.90;;;;;;4896773;29;20052;-71
2022/04/01 05:25:55;;;;;;;1.85;0.95;;;1.20;99.90;;;;;;4897064;29;20049;-70
2022/04/01 05:28:25;;;;;;;4.25;1.20;;;1.20;99.90;;;;;;4896953;29;20048;-70
2022/04/01 05:31:13;;;;;;;4.53;1.10;;;1.20;99.90;;;;;;4895999;29;20084;-72
2022/04/01 05:34:01;;;;;;;3.45;0.80;;;1.30;99.90;;;;;;4896306;29;20047;-71
2022/04/01 05:36:29;;;;;;;3.90;1.20;;;1.20;99.90;;;;;;4879711;29;20060;-70
2022/04/01 05:38:56;;;;;;;3.67;1.25;;;1.20;99.90;;;;;;4897773;29;20052;-72
2022/04/01 05:41:23;;;;;;;2.92;1.20;;;1.30;99.90;;;;;;4897428;29;20422;-71
2022/04/01 05:43:50;;;;;;;3.58;1.08;;;1.30;99.90;;;;;;4897087;29;20103;-72
2022/04/01 05:46:17;;;;;;;3.95;0.90;;;1.40;99.90;;;;;;4897452;29;20037;-73
2022/04/01 05:48:43;;;;;;;2.97;1.10;;;1.40;99.90;;;;;;4897309;29;20059;-70
2022/04/01 05:51:15;;;;;;;5.78;1.10;;;1.40;99.90;;;;;;4897118;29;20037;-71
2022/04/01 05:53:45;;;;;;;5.53;1.20;;;2.30;99.90;;;;;;4897527;29;20096;-72
2022/04/01 05:56:12;;;;;;;5.90;1.02;;;1.40;99.90;;;;;;4897258;29;20405;-72
2022/04/01 05:58:38;;;;;;;6.55;1.25;;;1.50;99.90;;;;;;4897124;29;20432;-70
2022/04/01 06:01:30;;;;;;;4.50;1.58;;;1.50;99.90;;;;;;4896969;29;20505;-71
2022/04/01 06:04:32;;;;;;;4.10;1.00;;;1.50;99.90;;;;;;4897028;29;20135;-71
2022/04/01 06:07:19;;;;;;;6.60;1.30;;;1.60;99.90;;;;;;4897378;29;20056;-70
2022/04/01 06:10:05;;;;;;;6.53;1.35;;;1.60;99.90;;;;;;4880434;29;20052;-71
2022/04/01 06:12:49;;;;;;;8.40;1.30;;;1.60;99.90;;;;;;4880455;29;20489;-70
2022/04/01 06:15:33;;;;;;;5.00;1.20;;;1.60;99.90;;;;;;4879762;29;20048;-70
2022/04/01 06:18:34;;;;;;;5.00;1.10;;;1.60;99.90;;;;;;4897096;29;20056;-69
2022/04/01 06:21:03;;;;;;;5.00;1.38;;;1.60;99.90;;;;;;4821016;29;20065;-71
2022/04/01 06:23:47;;;;;;;5.05;1.20;;;1.60;99.90;;;;;;4820850;29;20054;-70
2022/04/01 06:26:14;;;;;;;5.70;1.40;;;1.60;99.90;;;;;;4806133;29;20054;-71
2022/04/01 06:28:49;;;;;;;5.30;1.30;;;1.60;99.90;;;;;;4805914;29;20050;-69
2022/04/01 06:31:20;;;;;;;4.95;1.13;;;1.60;99.90;;;;;;4820290;29;20535;-70
2022/04/01 06:34:04;;;;;;;4.82;1.15;;;1.60;99.90;;;;;;4808518;29;20515;-69
2022/04/01 06:36:44;;;;;;;7.88;1.75;;;1.70;99.90;;;;;;4824696;29;20082;-69
2022/04/01 06:39:18;;;;;;;4.28;1.20;;;1.70;99.90;;;;;;4824665;29;20062;-70
2022/04/01 06:41:51;;;;;;;4.32;1.45;;;1.80;99.90;;;;;;4824301;29;20584;-70
2022/04/01 06:44:16;;;;;;;4.82;1.02;;;1.70;99.90;;;;;;4824254;29;20070;-71
2022/04/01 06:46:42;;;;;;;4.55;1.30;;;1.70;99.90;;;;;;4823710;29;20416;-69
2022/04/01 06:49:08;;;;;;;5.13;1.50;;;1.70;99.90;;;;;;4823831;29;20676;-67
2022/04/01 06:51:38;;;;;;;5.57;1.27;;;1.70;99.90;;;;;;4823900;29;20447;-69
2022/04/01 06:54:04;;;;;;;4.53;1.35;;;1.60;99.90;;;;;;4823981;29;20078;-68
2022/04/01 06:56:30;;;;;;;4.45;1.10;;;1.60;99.90;;;;;;4823672;29;20614;-72
2022/04/01 06:58:56;;;;;;;4.35;1.40;;;1.70;99.90;;;;;;4895540;29;20048;-73
2022/04/01 07:01:21;;;;;;;3.78;1.10;;;1.90;99.90;;;;;;4898634;29;20052;-70
2022/04/01 07:03:47;;;;;;;4.97;1.60;;;1.80;99.90;;;;;;4884572;29;20112;-74
2022/04/01 07:06:13;;;;;;;5.60;1.35;;;1.70;99.90;;;;;;4900043;29;20078;-72
2022/04/01 07:08:39;;;;;;;5.70;1.30;;;1.70;99.90;;;;;;4911707;29;20029;-74
2022/04/01 07:11:04;;;;;;;4.28;1.40;;;1.70;99.90;;;;;;4906803;29;20111;-77
2022/04/01 07:13:30;;;;;;;5.75;1.48;;;1.70;99.90;;;;;;4903759;29;20062;-73
2022/04/01 07:15:57;;;;;;;3.75;1.30;;;2.50;99.90;;;;;;4890619;29;20083;-75
2022/04/01 07:18:23;;;;;;;4.18;1.52;;;1.80;99.90;;;;;;4897468;29;20150;-71
2022/04/01 07:20:48;;;;;;;4.20;1.45;;;1.80;99.90;;;;;;4898424;29;20099;-72
2022/04/01 07:23:15;;;;;;;4.00;1.60;;;1.80;99.90;;;;;;4898017;29;20044;-70
2022/04/01 07:25:41;;;;;;;5.88;1.90;;;1.80;99.90;;;;;;4898650;29;20516;-80
2022/04/01 07:28:09;;;;;;;4.45;1.48;;;1.80;99.90;;;;;;4897585;29;20083;-71
2022/04/01 07:30:35;;;;;;;5.80;1.60;;;1.70;99.90;;;;;;4866315;29;20072;-74
2022/04/01 07:33:03;;;;;;;4.85;1.80;;;1.80;99.90;;;;;;4898057;29;20040;-74
2022/04/01 07:35:30;;;;;;;6.53;1.50;;;1.70;99.90;;;;;;4897130;29;20165;-75
2022/04/01 07:37:57;;;;;;;4.93;2.40;;;1.80;99.90;;;;;;4880790;29;20088;-69
2022/04/01 07:40:24;;;;;;;6.25;2.00;;;2.00;99.90;;;;;;4880948;29;20048;-76
2022/04/01 07:42:51;;;;;;;6.40;2.10;;;1.70;99.90;;;;;;4865618;29;20057;-72
2022/04/01 07:45:18;;;;;;;5.18;1.92;;;1.80;99.90;;;;;;4897478;29;20041;-74
2022/04/01 07:47:48;;;;;;;7.90;2.33;;;1.80;99.90;;;;;;4897224;29;20060;-72
2022/04/01 07:50:15;;;;;;;8.35;2.15;;;1.80;99.90;;;;;;4897317;29;20043;-75
2022/04/01 07:52:43;;;;;;;8.73;2.60;;;1.80;99.90;;;;;;4896668;29;20819;-73
2022/04/01 07:55:10;;;;;;;8.90;2.60;;;1.90;99.90;;;;;;4897433;29;20461;-73
2022/04/01 07:57:40;;;;;;;7.10;2.22;;;2.10;99.90;;;;;;4880208;29;20056;-74
2022/04/01 08:00:07;;;;;;;6.93;2.42;;;1.80;99.90;;;;;;4880582;29;20064;-75
2022/04/01 08:02:33;;;;;;;5.78;2.60;;;1.80;99.90;;;;;;4879759;29;20161;-75
2022/04/01 08:04:59;;;;;;;9.32;2.90;;;1.80;99.90;;;;;;4879921;29;20052;-75
2022/04/01 08:07:25;;;;;;;8.68;2.63;;;1.80;99.90;;;;;;4896178;29;20051;-75
2022/04/01 08:09:52;;;;;;;8.65;3.45;;;1.90;99.90;;;;;;4880395;29;20060;-75
2022/04/01 08:12:17;;;;;;;10.85;3.58;;;1.90;99.90;;;;;;4880583;29;20075;-74
2022/04/01 08:14:43;;;;;;;9.07;3.15;;;1.90;99.90;;;;;;4880593;29;20060;-74
2022/04/01 08:17:14;;;;;;;15.77;3.80;;;1.90;99.90;;;;;;4893773;29;20763;-73
2022/04/01 08:20:34;;;;;;;10.27;3.35;;;2.00;99.90;;;;;;4897858;29;20044;-72
2022/04/01 08:23:00;;;;;;;10.95;3.75;;;2.00;99.90;;;;;;4878276;29;20063;-72
2022/04/01 08:25:26;;;;;;;9.55;3.80;;;2.00;99.90;;;;;;4894873;29;20505;-73
2022/04/01 08:27:51;;;;;;;8.23;3.33;;;2.00;99.90;;;;;;4895188;29;20518;-70
2022/04/01 08:30:17;;;;;;;9.02;3.80;;;2.00;99.90;;;;;;4895290;29;20072;-72
2022/04/01 08:32:43;;;;;;;9.30;3.80;;;2.00;99.90;;;;;;4895193;29;20486;-72
2022/04/01 08:35:09;;;;;;;9.27;3.47;;;2.00;99.90;;;;;;4892959;29;21205;-74
2022/04/01 08:37:35;;;;;;;9.73;3.38;;;2.20;99.90;;;;;;4894828;29;20055;-71
2022/04/01 08:40:00;;;;;;;9.40;3.75;;;2.00;99.90;;;;;;4878947;29;20048;-73
2022/04/01 08:42:27;;;;;;;10.55;4.30;;;2.00;99.90;;;;;;4894147;29;20080;-74
2022/04/01 08:44:53;;;;;;;10.63;4.03;;;1.90;99.90;;;;;;4875775;29;20561;-70
2022/04/01 08:47:20;;;;;;;9.05;3.80;;;1.90;99.90;;;;;;4895040;29;20374;-76
2022/04/01 08:49:46;;;;;;;9.75;4.00;;;1.90;99.90;;;;;;4878143;29;20061;-75
2022/04/01 08:52:11;;;;;;;9.05;3.20;;;1.90;99.90;;;;;;4894374;29;20056;-74
2022/04/01 08:54:37;;;;;;;13.65;4.15;;;1.90;99.90;;;;;;4874722;29;20413;-72
2022/04/01 08:57:05;;;;;;;12.18;4.10;;;1.80;99.90;;;;;;4875623;29;20072;-74
2022/04/01 08:59:32;;;;;;;13.07;4.40;;;1.90;99.90;;;;;;4891955;29;20048;-77
2022/04/01 09:02:09;;;;;;;8.85;4.28;;;1.80;99.90;;;;;;4894388;29;20087;-80
2022/04/01 09:04:36;;;;;;;9.20;3.35;;;1.80;99.90;;;;;;4860131;29;20056;-79
2022/04/01 09:07:15;;;;;;;9.52;3.83;;;1.80;99.90;;;;;;4877541;29;20167;-81
2022/04/01 09:09:42;;;;;;;9.65;4.18;;;1.80;99.90;;;;;;4893926;29;20052;-71
2022/04/01 09:12:16;;;;;;;10.32;4.25;;;1.80;99.90;;;;;;4877127;29;20056;-78
2022/04/01 09:14:51;;;;;;;10.27;3.80;;;1.90;99.90;;;;;;4892009;29;20052;-82
2022/04/01 09:17:17;;;;;;;11.05;4.20;;;1.90;99.90;;;;;;4894209;29;20091;-85
2022/04/01 09:19:42;;;;;;;9.85;4.20;;;2.00;99.90;;;;;;4894803;29;20099;-76
2022/04/01 09:22:25;;;;;;;10.30;4.05;;;2.70;99.90;;;;;;4894404;29;20052;-75
2022/04/01 09:25:02;;;;;;;11.15;5.05;;;2.00;99.90;;;;;;4892019;29;20258;-73
2022/04/01 09:27:39;;;;;;;10.65;4.95;;;2.10;99.90;;;;;;4893274;29;20480;-79
2022/04/01 09:30:07;;;;;;;12.68;5.03;;;2.10;99.90;;;;;;4892956;29;20075;-77
2022/04/01 09:32:41;;;;;;;12.55;4.78;;;2.10;99.90;;;;;;4877689;29;20135;-73
2022/04/01 09:35:10;;;;;;;11.85;5.50;;;2.20;99.90;;;;;;4889796;29;20131;-71
2022/04/01 09:37:42;;;;;;;12.00;5.07;;;2.40;99.90;;;;;;4894809;29;20052;-74
2022/04/01 09:40:08;;;;;;;11.33;4.60;;;2.30;99.90;;;;;;4893273;29;20051;-75
2022/04/01 09:42:34;;;;;;;11.27;4.65;;;2.30;99.90;;;;;;4892365;29;20293;-75
2022/04/01 09:45:02;;;;;;;11.35;4.82;;;3.10;99.90;;;;;;4874889;29;20055;-77
2022/04/01 09:47:35;;;;;;;10.10;4.25;;;2.30;99.90;;;;;;4875082;29;20057;-75
2022/04/01 09:50:04;;;;;;;10.02;4.32;;;2.30;99.90;;;;;;4876892;29;20063;-76
2022/04/01 09:52:36;;;;;;;11.18;4.30;;;2.40;99.90;;;;;;4894881;29;20128;-79
2022/04/01 09:55:02;;;;;;;9.38;4.03;;;2.40;99.90;;;;;;4889228;29;20078;-75
2022/04/01 09:57:28;;;;;;;10.23;3.90;;;2.40;99.90;;;;;;4875725;29;20053;-78
2022/04/01 09:59:54;;;;;;;9.30;3.63;;;2.40;99.90;;;;;;4862192;29;20041;-78
2022/04/01 10:02:20;;;;;;;12.32;3.70;;;2.40;99.90;;;;;;4892945;29;20131;-84
2022/04/01 10:04:47;;;;;;;9.52;3.38;;;2.40;99.90;;;;;;4875049;29;20064;-82
2022/04/01 10:07:12;;;;;;;8.45;2.72;;;2.30;99.90;;;;;;4893135;29;20084;-78
2022/04/01 10:09:39;;;;;;;9.32;2.58;;;2.30;99.90;;;;;;4895567;29;20132;-74
2022/04/01 10:12:12;;;;;;;6.03;2.35;;;2.30;99.90;;;;;;4880174;29;20528;-72
2022/04/01 10:14:40;;;;;;;6.40;2.42;;;2.20;99.90;;;;;;4877996;29;20548;-82
2022/04/01 10:17:10;;;;;;;10.82;2.50;;;2.30;99.90;;;;;;4895809;29;20405;-75
2022/04/01 10:19:40;;;;;;;8.48;2.38;;;2.30;99.90;;;;;;4896264;29;20055;-77
2022/04/01 10:22:07;;;;;;;5.65;2.17;;;2.30;99.90;;;;;;4896627;29;20044;-75
2022/04/01 10:25:01;;;;;;;9.45;2.22;;;2.30;99.90;;;;;;4878160;29;20081;-81
2022/04/01 10:27:47;;;;;;;8.07;2.13;;;2.30;99.90;;;;;;4878650;29;20037;-79
2022/04/01 10:30:16;;;;;;;5.03;1.95;;;2.30;99.90;;;;;;4894580;29;20044;-81
2022/04/01 10:32:43;;;;;;;7.13;1.95;;;2.20;99.90;;;;;;4880192;29;20563;-79
2022/04/01 10:35:24;;;;;;;5.97;2.08;;;1.50;99.90;;;;;;4878954;29;20497;-74
2022/04/01 10:38:06;;;;;;;4.60;1.80;;;2.10;99.90;;;;;;4879867;29;20071;-73
2022/04/01 10:40:37;;;;;;;6.45;2.10;;;2.10;99.90;;;;;;4878809;29;20053;-76
2022/04/01 10:43:18;;;;;;;8.05;2.33;;;2.10;99.90;;;;;;4878724;29;20040;-75
2022/04/01 10:46:19;;;;;;;8.13;2.80;;;2.10;99.90;;;;;;4895052;29;20128;-75
2022/04/01 10:52:11;;;;;;;6.07;2.10;;;2.10;99.90;;;;;;4843614;29;20054;-72
2022/04/01 10:54:42;;;;;;;7.60;2.53;;;2.10;99.90;;;;;;4862720;29;20073;-84
2022/04/01 10:57:10;;;;;;;6.93;2.30;;;2.10;99.90;;;;;;4864516;29;20058;-72
2022/04/01 10:59:47;;;;;;;6.28;2.47;;;2.10;99.90;;;;;;4861908;29;20053;-79
2022/04/01 11:02:18;;;;;;;6.70;1.92;;;2.20;99.90;;;;;;4858938;29;20061;-72
2022/04/01 11:04:45;;;;;;;7.15;1.70;;;2.20;99.90;;;;;;4851959;29;20123;-75
2022/04/01 11:07:29;;;;;;;5.88;1.77;;;2.30;99.90;;;;;;4850710;29;20085;-73
2022/04/01 11:10:00;;;;;;;6.18;1.60;;;2.40;99.90;;;;;;4848650;29;20072;-73
2022/04/01 11:12:35;;;;;;;8.80;2.50;;;2.50;99.90;;;;;;4846707;29;20048;-70
2022/04/01 11:15:07;;;;;;;6.05;1.90;;;2.50;99.90;;;;;;4838880;29;20101;-75
2022/04/01 11:17:38;;;;;;;6.72;1.65;;;2.60;99.90;;;;;;4856266;29;20127;-72
2022/04/01 11:20:04;;;;;;;5.55;1.40;;;2.70;99.90;;;;;;4853182;29;20057;-74
2022/04/01 11:23:03;;;;;;;5.03;1.60;;;2.80;99.90;;;;;;4856438;29;20060;-73
2022/04/01 11:25:31;;;;;;;7.45;2.03;;;2.90;99.90;;;;;;4895165;29;20094;-72
2022/04/01 11:28:05;;;;;;;4.15;1.38;;;2.80;99.90;;;;;;4862783;29;20088;-70
2022/04/01 11:30:34;;;;;;;7.35;1.67;;;2.80;99.90;;;;;;4878439;29;20053;-70
2022/04/01 11:33:12;;;;;;;3.13;1.45;;;2.90;99.90;;;;;;4895437;29;20086;-71
2022/04/01 11:35:44;;;;;;;5.55;1.63;;;2.90;99.90;;;;;;4894245;29;20253;-71
2022/04/01 11:38:18;;;;;;;5.22;1.67;;;2.90;99.90;;;;;;4896000;29;20076;-72
2022/04/01 11:40:45;;;;;;;6.38;1.88;;;2.80;99.90;;;;;;4878321;29;20063;-71
2022/04/01 11:43:11;;;;;;;5.28;1.60;;;3.20;99.90;;;;;;4894312;29;20114;-71
2022/04/01 11:45:44;;;;;;;6.30;1.65;;;2.70;99.90;;;;;;4895986;29;20041;-71
2022/04/01 11:48:17;;;;;;;4.93;1.55;;;2.60;99.90;;;;;;4894944;29;20514;-74
2022/04/01 11:50:47;;;;;;;6.05;1.50;;;2.60;99.90;;;;;;4890523;29;20413;-73
2022/04/01 11:53:23;;;;;;;5.88;1.63;;;2.70;99.90;;;;;;4896599;29;20067;-75
2022/04/01 11:55:49;;;;;;;;;;;2.90;99.90;;;;;;4881090;29;20056;-70
2022/04/01 11:58:15;;;;;;;5.03;1.38;;;3.00;99.90;;;;;;4903108;29;20280;-72
2022/04/01 12:00:40;;;;;;;3.20;1.33;;;3.10;99.90;;;;;;4895950;29;20161;-70
2022/04/01 12:03:08;;;;;;;5.68;1.58;;;3.10;99.90;;;;;;4892578;29;20128;-70
2022/04/01 12:05:34;;;;;;;5.45;1.50;;;3.10;99.90;;;;;;4893308;29;20127;-72
2022/04/01 12:10:56;;;;;;;5.72;1.60;;;3.20;99.90;;;;;;4893933;29;20073;-75
2022/04/01 12:13:23;;;;;;;6.60;1.58;;;3.20;99.90;;;;;;4893317;29;20192;-75
2022/04/01 12:15:52;;;;;;;5.07;1.45;;;3.10;99.90;;;;;;4894479;29;20064;-71
2022/04/01 12:18:31;;;;;;;4.63;1.60;;;3.10;99.90;;;;;;4878421;29;20057;-73
2022/04/01 12:20:59;;;;;;;4.82;1.73;;;3.10;99.90;;;;;;4894776;29;20044;-72
2022/04/01 12:23:32;;;;;;;4.95;1.58;;;3.20;99.90;;;;;;4893405;29;20673;-72
2022/04/01 12:25:58;;;;;;;;;;;3.10;99.90;;;;;;4890352;29;20433;-70
2022/04/01 12:28:26;;;;;;;3.47;1.52;;;3.70;99.90;;;;;;4894942;29;19934;-69
2022/04/01 12:30:55;;;;;;;7.05;2.05;;;4.00;99.90;;;;;;4894277;29;20138;-70
2022/04/01 12:33:25;;;;;;;4.22;1.35;;;3.20;99.90;;;;;;4892955;29;20210;-71
2022/04/01 12:36:01;;;;;;;4.57;1.38;;;3.20;99.90;;;;;;4893910;29;20051;-73
2022/04/01 12:38:39;;;;;;;5.53;1.52;;;3.20;99.90;;;;;;4893736;29;20060;-69
2022/04/01 12:41:12;;;;;;;5.63;2.15;;;3.20;99.90;;;;;;4894096;29;20059;-72
2022/04/01 12:43:47;;;;;;;6.53;1.35;;;3.30;99.90;;;;;;4892544;29;20045;-73
2022/04/01 12:46:15;;;;;;;5.95;1.40;;;3.40;99.90;;;;;;4877645;29;20109;-71
2022/04/01 12:48:53;;;;;;;10.00;1.90;;;3.40;99.90;;;;;;4894133;29;20049;-71
2022/04/01 12:51:28;;;;;;;9.25;1.80;;;3.50;99.90;;;;;;4876960;29;20052;-71
2022/04/01 12:54:11;;;;;;;5.78;1.50;;;3.60;99.90;;;;;;4891863;29;20503;-72
2022/04/01 12:56:49;;;;;;;7.03;1.52;;;3.60;99.90;;;;;;4893865;29;20052;-74
2022/04/01 12:59:16;;;;;;;5.68;1.60;;;3.70;99.90;;;;;;4893476;29;20045;-70
2022/04/01 13:01:45;;;;;;;7.40;1.60;;;3.70;99.90;;;;;;4894070;29;20076;-71
2022/04/01 13:04:20;;;;;;;4.47;1.40;;;3.80;99.90;;;;;;4892234;29;20104;-72
2022/04/01 13:07:06;;;;;;;4.15;1.38;;;3.80;99.90;;;;;;4877781;29;20392;-72
2022/04/01 13:09:32;;;;;;;4.93;1.40;;;3.80;99.90;;;;;;4877627;29;20052;-74
2022/04/01 13:11:59;;;;;;;4.75;1.48;;;3.80;99.90;;;;;;4893789;29;20052;-72
2022/04/01 13:14:30;;;;;;;11.95;1.67;;;3.80;99.90;;;;;;4892321;29;20055;-69
2022/04/01 13:16:58;;;;;;;4.53;1.52;;;3.90;99.90;;;;;;4877467;29;20139;-71
2022/04/01 13:19:23;;;;;;;4.32;1.55;;;4.00;99.90;;;;;;4894145;29;20056;-73
2022/04/01 13:21:51;;;;;;;5.35;2.13;;;4.00;99.90;;;;;;4893774;29;20074;-77
2022/04/01 13:24:21;;;;;;;7.85;1.80;;;4.10;99.90;;;;;;4891792;29;20080;-73
2022/04/01 13:26:48;;;;;;;4.22;1.50;;;4.10;99.90;;;;;;4876402;29;20052;-71